Purwokerto Airport


Codes: WICP/PWL
Name: Purwokerto Airport
City: Purwokerto-Java Island
Country: Indonesia
Elevation: 225 ft.
Wikipedia:

Photos at Purwokerto Airport


   Photos courtesy of SpottingLog. You can add your own sightings and photos by signing up for a free trial today.



No photos found.

Weather at Purwokerto Airport


Time (UTC)DescriptionTempratureWindCloud coverageVisibilityPressureHumidity
16-Jun-2024 09:00Broken Clouds29°C9 mph, S79%10000m1009hPa67%
16-Jun-2024 12:00Broken Clouds28°C2 mph, S80%10000m1010hPa73%
16-Jun-2024 15:00Light Rain26°C0 mph, SE93%10000m1011hPa81%
16-Jun-2024 18:00Overcast Clouds24°C0 mph, SE92%10000m1011hPa90%
16-Jun-2024 21:00Light Rain24°C0 mph, NW83%10000m1010hPa91%
17-Jun-2024 00:00Broken Clouds25°C2 mph, N82%10000m1012hPa87%
17-Jun-2024 03:00Few Clouds31°C2 mph, SE20%10000m1011hPa57%
17-Jun-2024 06:00Few Clouds34°C2 mph, S16%10000m1009hPa47%
17-Jun-2024 09:00Light Rain29°C7 mph, S26%10000m1009hPa67%
17-Jun-2024 12:00Light Rain25°C0 mph, SE30%10000m1011hPa90%
17-Jun-2024 15:00Light Rain25°C0 mph, SE79%10000m1013hPa93%
17-Jun-2024 18:00Broken Clouds25°C0 mph, SE75%10000m1011hPa96%
17-Jun-2024 21:00Scattered Clouds24°C0 mph, N41%10000m1011hPa98%
18-Jun-2024 00:00Broken Clouds25°C0 mph, NE61%10000m1012hPa94%
18-Jun-2024 03:00Light Rain29°C4 mph, SE100%10000m1011hPa73%
18-Jun-2024 06:00Light Rain31°C7 mph, S100%10000m1009hPa63%
18-Jun-2024 09:00Light Rain28°C4 mph, SE94%10000m1009hPa83%
18-Jun-2024 12:00Moderate Rain24°C0 mph, SW92%10000m1011hPa95%
18-Jun-2024 15:00Light Rain24°C0 mph, S100%10000m1013hPa96%
18-Jun-2024 18:00Light Rain24°C0 mph, W100%10000m1012hPa97%
18-Jun-2024 21:00Overcast Clouds24°C0 mph, SW100%10000m1011hPa97%
19-Jun-2024 00:00Light Rain25°C0 mph, NW97%10000m1012hPa93%
19-Jun-2024 03:00Light Rain28°C4 mph, SE100%10000m1012hPa75%
19-Jun-2024 06:00Light Rain30°C4 mph, SE100%10000m1010hPa63%
19-Jun-2024 09:00Overcast Clouds27°C4 mph, S100%10000m1009hPa75%
19-Jun-2024 12:00Light Rain25°C2 mph, SE100%10000m1011hPa89%
19-Jun-2024 15:00Light Rain24°C0 mph, S100%10000m1013hPa92%
19-Jun-2024 18:00Light Rain24°C0 mph, NW100%10000m1011hPa94%
19-Jun-2024 21:00Light Rain23°C2 mph, SW100%10000m1011hPa97%
20-Jun-2024 00:00Overcast Clouds23°C0 mph, SW98%10000m1012hPa95%
20-Jun-2024 03:00Light Rain27°C4 mph, SE96%10000m1012hPa72%
20-Jun-2024 06:00Overcast Clouds29°C4 mph, SE99%10000m1010hPa62%
20-Jun-2024 09:00Overcast Clouds27°C7 mph, SE100%10000m1009hPa71%
20-Jun-2024 12:00Overcast Clouds24°C2 mph, SE92%10000m1012hPa84%
20-Jun-2024 15:00Overcast Clouds24°C0 mph, NE100%10000m1013hPa86%
20-Jun-2024 18:00Overcast Clouds23°C2 mph, NE97%10000m1012hPa88%
20-Jun-2024 21:00Scattered Clouds22°C0 mph, N34%10000m1011hPa94%
21-Jun-2024 00:00Broken Clouds23°C0 mph, E55%10000m1012hPa89%
21-Jun-2024 03:00Overcast Clouds29°C4 mph, SE91%10000m1012hPa64%
21-Jun-2024 06:00Overcast Clouds30°C9 mph, S91%10000m1010hPa55%